Time;durP1;ratioP1;P1;durP2;ratioP2;P2;SDS_P1;SDS_P2;PMS_P1;PMS_P2;Temp;Humidity;BMP_temperature;BMP_pressure;BME280_temperature;BME280_humidity;BME280_pressure;Samples;Min_cycle;Max_cycle;Signal;HPM_P1;HPM_P2
2022/09/16 00:00:01;;;;;;;4.37;2.50;;;14.30;98.00;;;;;;5014010;28;20468;-68
2022/09/16 00:02:30;;;;;;;2.30;2.20;;;14.30;98.00;;;;;;4996689;28;20969;-68
2022/09/16 00:04:58;;;;;;;7.57;2.47;;;14.30;98.00;;;;;;5014079;28;20517;-68
2022/09/16 00:07:25;;;;;;;3.77;2.07;;;14.50;98.00;;;;;;5014046;28;20462;-68
2022/09/16 00:09:52;;;;;;;3.20;2.40;;;14.70;98.00;;;;;;5014013;28;20477;-68
2022/09/16 00:12:19;;;;;;;2.63;2.30;;;14.80;98.00;;;;;;5013891;28;20465;-68
2022/09/16 00:14:46;;;;;;;2.57;2.13;;;14.70;98.00;;;;;;5013665;28;20459;-68
2022/09/16 00:17:13;;;;;;;3.77;2.30;;;14.60;98.00;;;;;;5013532;28;20461;-68
2022/09/16 00:19:42;;;;;;;1.83;1.73;;;14.60;98.00;;;;;;5013598;28;20458;-68
2022/09/16 00:22:09;;;;;;;3.57;2.37;;;14.60;98.00;;;;;;5013479;28;20459;-68
2022/09/16 00:24:36;;;;;;;2.97;2.13;;;14.60;98.00;;;;;;5013355;28;20477;-68
2022/09/16 00:27:04;;;;;;;3.83;2.23;;;14.60;98.00;;;;;;5013344;28;20552;-69
2022/09/16 00:29:31;;;;;;;2.13;1.63;;;14.50;98.00;;;;;;5013449;28;20494;-68
2022/09/16 00:31:58;;;;;;;2.80;2.03;;;14.30;98.00;;;;;;5013213;28;20462;-68
2022/09/16 00:34:25;;;;;;;4.13;2.40;;;14.30;98.00;;;;;;4995979;28;20461;-68
2022/09/16 00:37:18;;;;;;;3.00;2.50;;;14.40;98.00;;;;;;5013104;28;20466;-68
2022/09/16 00:39:47;;;;;;;4.20;1.90;;;14.30;98.00;;;;;;5011819;28;20469;-68
2022/09/16 00:42:14;;;;;;;3.60;2.27;;;14.40;98.00;;;;;;4996083;28;20450;-68
2022/09/16 00:44:56;;;;;;;2.53;2.00;;;14.60;98.00;;;;;;5012994;28;20456;-68
2022/09/16 00:47:28;;;;;;;5.10;2.30;;;14.60;98.00;;;;;;5013027;28;20468;-68
2022/09/16 00:50:02;;;;;;;3.00;1.90;;;14.60;98.00;;;;;;5013008;28;20470;-68
2022/09/16 00:52:31;;;;;;;5.10;2.70;;;14.50;98.00;;;;;;4995090;28;20470;-68
2022/09/16 00:55:01;;;;;;;2.60;2.00;;;14.50;98.00;;;;;;5013060;28;20461;-68
2022/09/16 00:57:29;;;;;;;2.40;2.00;;;14.60;98.00;;;;;;5012886;28;20477;-68
2022/09/16 00:59:58;;;;;;;2.80;2.20;;;14.40;98.00;;;;;;5013115;28;20481;-69
2022/09/16 01:02:25;;;;;;;4.20;2.20;;;14.20;98.00;;;;;;5013109;28;20496;-68
2022/09/16 01:04:57;;;;;;;3.43;2.10;;;14.20;98.00;;;;;;5012730;28;20457;-68
2022/09/16 01:07:31;;;;;;;2.83;2.03;;;14.30;98.00;;;;;;5011983;28;20473;-69
2022/09/16 01:09:58;;;;;;;3.13;2.10;;;14.20;98.00;;;;;;5029634;28;20508;-68
2022/09/16 01:12:29;;;;;;;2.40;1.73;;;14.30;98.00;;;;;;5032383;28;20470;-68
2022/09/16 01:14:57;;;;;;;2.80;2.20;;;14.40;98.00;;;;;;5031064;28;20472;-68
2022/09/16 01:17:38;;;;;;;3.70;2.53;;;14.50;98.00;;;;;;5032211;28;20458;-68
2022/09/16 01:20:44;;;;;;;2.67;2.13;;;14.50;98.00;;;;;;5031343;28;20470;-68
2022/09/16 01:23:47;;;;;;;2.80;1.83;;;14.50;98.00;;;;;;5032077;28;20458;-68
2022/09/16 01:26:34;;;;;;;2.43;1.90;;;14.80;98.00;;;;;;5032208;28;20871;-68
2022/09/16 01:29:49;;;;;;;2.43;1.73;;;14.80;98.00;;;;;;5032057;28;20464;-68
2022/09/16 01:32:25;;;;;;;5.30;2.47;;;14.70;98.00;;;;;;4993344;28;20538;-69
2022/09/16 01:35:01;;;;;;;3.20;2.50;;;14.80;98.00;;;;;;5032119;28;20463;-68
2022/09/16 01:37:38;;;;;;;3.00;2.33;;;14.80;98.00;;;;;;5031893;28;20478;-68
2022/09/16 01:40:11;;;;;;;2.80;1.90;;;14.70;98.00;;;;;;5031896;28;20464;-68
2022/09/16 01:42:45;;;;;;;2.60;2.13;;;14.70;98.00;;;;;;5030570;28;20463;-68
2022/09/16 01:45:20;;;;;;;8.60;2.10;;;14.60;98.00;;;;;;5031893;28;20827;-69
2022/09/16 01:47:55;;;;;;;3.10;2.00;;;14.50;98.00;;;;;;5031669;28;20464;-68
2022/09/16 01:50:26;;;;;;;3.10;2.10;;;14.50;98.00;;;;;;5031779;28;20451;-69
2022/09/16 01:53:04;;;;;;;3.37;2.00;;;14.60;98.00;;;;;;5030565;28;20467;-68
2022/09/16 01:55:36;;;;;;;3.43;2.53;;;14.50;98.00;;;;;;5031906;28;20467;-68
2022/09/16 01:58:09;;;;;;;3.20;2.00;;;14.40;98.00;;;;;;5031994;28;20466;-68
2022/09/16 02:00:40;;;;;;;3.20;2.00;;;14.30;98.00;;;;;;5031934;28;20470;-68
2022/09/16 02:03:12;;;;;;;2.67;2.30;;;14.30;98.00;;;;;;5031659;28;20830;-68
2022/09/16 02:05:45;;;;;;;3.30;2.40;;;14.20;98.00;;;;;;5031122;28;20502;-68
2022/09/16 02:08:15;;;;;;;2.87;1.83;;;14.20;98.00;;;;;;5026895;28;20472;-68
2022/09/16 02:10:47;;;;;;;3.33;1.97;;;14.30;98.00;;;;;;5011823;28;20463;-68
2022/09/16 02:13:20;;;;;;;2.03;1.70;;;14.40;98.00;;;;;;5011841;28;20467;-68
2022/09/16 02:15:51;;;;;;;2.40;1.90;;;14.40;98.00;;;;;;5011503;28;20470;-68
2022/09/16 02:18:26;;;;;;;3.33;2.57;;;14.30;98.00;;;;;;5011858;28;20465;-68
2022/09/16 02:20:56;;;;;;;3.30;2.67;;;14.20;98.00;;;;;;5011482;28;20471;-68
2022/09/16 02:23:27;;;;;;;3.17;2.30;;;14.20;98.00;;;;;;5011654;28;20926;-68
2022/09/16 02:25:56;;;;;;;2.60;1.87;;;14.20;98.00;;;;;;5011428;28;20500;-68
2022/09/16 02:28:27;;;;;;;2.80;2.40;;;14.00;98.00;;;;;;5011399;28;20466;-68
2022/09/16 02:30:58;;;;;;;2.67;1.90;;;13.80;98.00;;;;;;5011560;28;20469;-68
2022/09/16 02:33:33;;;;;;;4.57;2.53;;;13.90;98.00;;;;;;4993483;28;20470;-68
2022/09/16 02:36:04;;;;;;;2.83;2.00;;;13.90;98.00;;;;;;5011383;28;20514;-68
2022/09/16 02:38:38;;;;;;;2.07;1.63;;;13.90;98.00;;;;;;5011568;28;20543;-68
2022/09/16 02:41:05;;;;;;;3.00;2.13;;;13.90;98.00;;;;;;5011468;28;21046;-68
2022/09/16 02:43:33;;;;;;;2.07;1.73;;;13.80;98.00;;;;;;5011356;28;20482;-68
2022/09/16 02:46:09;;;;;;;3.07;2.60;;;13.70;98.00;;;;;;5011168;28;20490;-68
2022/09/16 02:48:50;;;;;;;3.80;2.20;;;13.70;98.00;;;;;;5011430;28;20846;-69
2022/09/16 02:51:26;;;;;;;4.03;2.53;;;13.70;98.00;;;;;;4993963;28;20461;-68
2022/09/16 02:53:57;;;;;;;2.13;1.97;;;13.70;98.00;;;;;;5011405;28;20640;-68
2022/09/16 02:56:27;;;;;;;2.57;1.93;;;13.70;98.00;;;;;;5011858;28;20462;-68
2022/09/16 02:58:54;;;;;;;3.00;2.10;;;13.70;98.00;;;;;;5011386;28;20487;-68
2022/09/16 03:01:23;;;;;;;3.73;2.10;;;13.70;98.00;;;;;;4993813;28;20976;-68
2022/09/16 03:03:54;;;;;;;2.20;2.00;;;13.70;98.00;;;;;;5011174;28;20471;-68
2022/09/16 03:06:23;;;;;;;4.60;2.30;;;13.80;98.00;;;;;;5011166;28;20517;-68
2022/09/16 03:08:52;;;;;;;2.63;2.10;;;13.90;98.00;;;;;;5010815;28;20503;-68
2022/09/16 03:11:48;;;;;;;3.20;2.40;;;14.10;98.00;;;;;;5011233;28;20477;-68
2022/09/16 03:14:28;;;;;;;2.27;1.73;;;14.20;98.00;;;;;;5011138;28;20831;-68
2022/09/16 03:17:02;;;;;;;1.80;1.60;;;14.40;98.00;;;;;;5013581;28;20469;-68
2022/09/16 03:19:38;;;;;;;2.40;2.10;;;14.50;98.00;;;;;;5014792;28;20822;-68
2022/09/16 03:22:14;;;;;;;2.93;2.20;;;14.50;98.00;;;;;;5014852;28;20482;-68
2022/09/16 03:24:50;;;;;;;2.83;2.10;;;14.40;98.00;;;;;;5014134;28;20465;-68
2022/09/16 03:27:22;;;;;;;2.30;2.10;;;14.30;98.00;;;;;;5014700;28;20483;-68
2022/09/16 03:29:55;;;;;;;2.50;1.90;;;14.20;98.00;;;;;;5014515;28;20472;-68
2022/09/16 03:32:26;;;;;;;1.87;1.53;;;14.20;98.00;;;;;;5014546;28;20468;-68
2022/09/16 03:35:00;;;;;;;2.33;2.10;;;14.10;98.00;;;;;;4997479;28;20469;-68
2022/09/16 03:37:33;;;;;;;15.73;2.20;;;14.00;98.00;;;;;;5014456;28;20456;-68
2022/09/16 03:40:05;;;;;;;2.43;2.07;;;14.00;98.00;;;;;;5014572;28;20474;-69
2022/09/16 03:42:32;;;;;;;4.50;2.30;;;13.90;98.00;;;;;;5014364;28;20460;-68
2022/09/16 03:44:59;;;;;;;2.30;1.93;;;13.90;98.00;;;;;;5014359;28;20450;-68
2022/09/16 03:47:27;;;;;;;3.00;2.10;;;13.80;98.00;;;;;;5014139;28;20493;-68
2022/09/16 03:49:56;;;;;;;4.43;2.30;;;14.00;98.00;;;;;;5014858;28;20462;-68
2022/09/16 03:52:23;;;;;;;3.63;2.23;;;14.20;98.00;;;;;;5014222;28;20822;-68
2022/09/16 03:54:50;;;;;;;2.43;1.90;;;14.40;98.00;;;;;;5014436;28;20950;-68
2022/09/16 03:57:17;;;;;;;3.80;2.40;;;14.50;98.00;;;;;;5013841;28;20489;-68
2022/09/16 03:59:44;;;;;;;3.17;2.60;;;14.40;98.00;;;;;;4996991;28;20466;-68
2022/09/16 04:02:11;;;;;;;5.37;1.73;;;14.30;98.00;;;;;;5013846;28;20461;-69
2022/09/16 04:04:39;;;;;;;2.57;2.37;;;14.30;98.00;;;;;;5014157;28;20458;-68
2022/09/16 04:07:08;;;;;;;2.73;2.00;;;14.30;98.00;;;;;;5013997;28;20478;-69
2022/09/16 04:09:36;;;;;;;2.93;2.10;;;14.40;98.00;;;;;;5013702;28;20807;-69
2022/09/16 04:12:04;;;;;;;2.93;1.93;;;14.50;98.00;;;;;;5013699;28;20474;-68
2022/09/16 04:14:31;;;;;;;4.43;2.23;;;14.60;98.00;;;;;;5013848;28;20464;-68
2022/09/16 04:17:06;;;;;;;3.40;2.23;;;14.70;98.00;;;;;;4996267;28;20458;-68
2022/09/16 04:19:33;;;;;;;2.80;1.90;;;14.60;98.00;;;;;;4997299;28;20461;-68
2022/09/16 04:22:00;;;;;;;4.87;2.50;;;14.50;98.00;;;;;;4996046;28;20469;-68
2022/09/16 04:24:29;;;;;;;4.57;2.67;;;14.30;98.00;;;;;;5013575;28;20521;-69
2022/09/16 04:26:56;;;;;;;3.97;2.43;;;14.30;98.00;;;;;;5013007;28;20590;-68
2022/09/16 04:29:24;;;;;;;3.13;1.90;;;14.20;98.00;;;;;;5013119;28;20892;-68
2022/09/16 04:31:51;;;;;;;3.00;1.83;;;14.10;98.00;;;;;;4995815;28;20474;-68
2022/09/16 04:34:18;;;;;;;2.40;2.20;;;14.00;98.00;;;;;;5013306;28;20453;-68
2022/09/16 04:36:45;;;;;;;4.77;2.67;;;13.90;98.00;;;;;;5013457;28;20500;-68
2022/09/16 04:39:12;;;;;;;3.00;1.97;;;13.80;98.00;;;;;;5013147;28;20461;-68
2022/09/16 04:41:41;;;;;;;3.63;2.20;;;13.90;98.00;;;;;;5013131;28;20465;-68
2022/09/16 04:44:10;;;;;;;2.60;2.17;;;14.00;98.00;;;;;;5013118;28;20467;-68
2022/09/16 04:46:37;;;;;;;3.77;2.80;;;14.20;98.00;;;;;;5013252;28;20482;-68
2022/09/16 04:49:05;;;;;;;3.90;2.00;;;14.20;98.00;;;;;;5013062;28;20474;-68
2022/09/16 04:51:32;;;;;;;4.37;2.33;;;14.20;98.00;;;;;;5013188;28;20479;-68
2022/09/16 04:54:00;;;;;;;2.73;2.27;;;14.20;98.00;;;;;;5013151;28;20462;-68
2022/09/16 04:56:30;;;;;;;2.63;1.70;;;14.20;98.00;;;;;;5013167;28;20461;-68
2022/09/16 04:59:01;;;;;;;2.00;1.63;;;14.20;98.00;;;;;;5012805;28;20614;-68
2022/09/16 05:01:29;;;;;;;5.23;2.37;;;14.30;98.00;;;;;;5013151;28;20513;-68
2022/09/16 05:03:59;;;;;;;2.80;2.07;;;14.30;98.00;;;;;;5012761;28;20470;-68
2022/09/16 05:06:28;;;;;;;3.33;2.23;;;14.40;98.00;;;;;;5012908;28;20536;-68
2022/09/16 05:08:56;;;;;;;3.23;1.90;;;14.40;98.00;;;;;;5012464;28;20471;-68
2022/09/16 05:11:25;;;;;;;2.80;2.30;;;14.40;98.00;;;;;;5012790;28;20617;-69
2022/09/16 05:13:54;;;;;;;3.17;2.13;;;14.30;98.00;;;;;;5012512;28;20550;-68
2022/09/16 05:16:23;;;;;;;2.47;2.23;;;14.40;98.00;;;;;;5012593;28;20548;-68
2022/09/16 05:18:54;;;;;;;3.40;1.83;;;14.30;98.00;;;;;;5012728;28;20457;-69
2022/09/16 05:21:22;;;;;;;5.33;2.30;;;14.30;98.00;;;;;;5012447;28;20482;-68
2022/09/16 05:23:51;;;;;;;2.93;2.07;;;14.40;98.00;;;;;;5012252;28;20485;-68
2022/09/16 05:26:20;;;;;;;2.73;2.30;;;14.60;98.00;;;;;;5012391;28;20454;-68
2022/09/16 05:28:49;;;;;;;4.07;2.43;;;14.50;98.00;;;;;;5012117;28;20506;-68
2022/09/16 05:31:18;;;;;;;3.27;2.00;;;14.40;98.00;;;;;;5012400;28;20466;-68
2022/09/16 05:33:53;;;;;;;2.47;2.07;;;14.50;98.00;;;;;;5012529;28;20793;-69
2022/09/16 05:36:21;;;;;;;1.90;1.80;;;14.50;98.00;;;;;;5012328;28;20507;-69
2022/09/16 05:38:50;;;;;;;3.60;2.43;;;14.50;98.00;;;;;;4994119;28;20466;-68
2022/09/16 05:41:18;;;;;;;2.60;1.83;;;14.60;98.00;;;;;;5012120;28;20457;-68
2022/09/16 05:43:45;;;;;;;3.77;2.17;;;14.60;98.00;;;;;;5012136;28;20466;-68
2022/09/16 05:46:18;;;;;;;2.43;1.90;;;14.60;98.00;;;;;;5012255;28;20455;-68
2022/09/16 05:48:50;;;;;;;2.53;1.90;;;14.50;98.00;;;;;;5011813;28;20472;-68
2022/09/16 05:51:19;;;;;;;2.10;1.90;;;14.50;98.00;;;;;;5012153;28;20558;-68
2022/09/16 05:53:49;;;;;;;2.23;1.83;;;14.50;98.00;;;;;;5012065;28;20459;-68
2022/09/16 05:56:18;;;;;;;2.10;1.67;;;14.50;98.00;;;;;;5012114;28;20474;-69
2022/09/16 05:58:46;;;;;;;4.03;2.30;;;14.80;98.00;;;;;;4994858;28;20466;-68
2022/09/16 06:01:16;;;;;;;2.50;1.87;;;14.70;98.00;;;;;;4994300;28;20969;-68
2022/09/16 06:03:46;;;;;;;1.90;1.50;;;14.60;98.00;;;;;;5011100;28;20457;-68
2022/09/16 06:06:19;;;;;;;1.90;1.87;;;14.50;98.00;;;;;;4994457;28;20470;-68
2022/09/16 06:08:46;;;;;;;2.63;1.80;;;14.60;98.00;;;;;;5011581;28;20481;-68
2022/09/16 06:11:14;;;;;;;2.80;2.10;;;14.60;98.00;;;;;;4994413;28;20468;-68
2022/09/16 06:13:42;;;;;;;3.40;1.87;;;14.40;98.00;;;;;;5011679;28;20477;-68
2022/09/16 06:16:10;;;;;;;2.33;2.00;;;14.40;98.00;;;;;;5011851;28;20966;-68
2022/09/16 06:18:38;;;;;;;1.80;1.73;;;14.40;98.00;;;;;;4993905;28;20472;-67
2022/09/16 06:21:07;;;;;;;2.53;2.30;;;14.40;98.00;;;;;;5011606;28;20490;-63
2022/09/16 06:23:36;;;;;;;2.97;2.17;;;14.50;98.00;;;;;;5011558;28;20460;-62
2022/09/16 06:26:05;;;;;;;2.80;2.20;;;14.40;98.00;;;;;;5011629;28;20991;-62
2022/09/16 06:28:32;;;;;;;2.73;2.30;;;14.50;98.00;;;;;;5011356;28;20507;-63
2022/09/16 06:31:08;;;;;;;3.50;2.00;;;14.70;98.00;;;;;;5011569;28;20468;-63
2022/09/16 06:33:36;;;;;;;2.33;2.10;;;14.70;98.00;;;;;;5011457;28;20460;-63
2022/09/16 06:36:04;;;;;;;4.60;2.03;;;14.80;98.00;;;;;;5011542;28;20456;-63
2022/09/16 06:38:31;;;;;;;2.97;2.20;;;14.70;98.00;;;;;;5011684;28;20996;-62
2022/09/16 06:41:00;;;;;;;3.20;2.07;;;14.70;98.00;;;;;;4993862;28;20454;-63
2022/09/16 06:43:28;;;;;;;2.97;2.03;;;14.80;98.00;;;;;;5011542;28;20536;-63
2022/09/16 06:45:59;;;;;;;3.90;2.20;;;14.80;98.00;;;;;;4994254;28;20466;-63
2022/09/16 06:48:27;;;;;;;3.20;2.07;;;14.70;98.00;;;;;;5011039;28;21090;-62
2022/09/16 06:51:00;;;;;;;1.80;1.70;;;14.70;98.00;;;;;;5012722;28;20979;-63
2022/09/16 06:53:28;;;;;;;2.27;1.80;;;14.70;98.00;;;;;;5015523;28;20816;-63
2022/09/16 06:55:55;;;;;;;2.60;1.87;;;14.60;98.00;;;;;;5015236;28;21042;-62
2022/09/16 06:58:24;;;;;;;4.17;1.83;;;14.60;98.00;;;;;;5015322;28;20467;-63
2022/09/16 07:00:51;;;;;;;2.50;1.83;;;14.50;98.00;;;;;;5015170;28;20736;-62
2022/09/16 07:03:18;;;;;;;4.37;2.40;;;14.60;98.00;;;;;;4997760;28;20457;-62
2022/09/16 07:05:56;;;;;;;2.53;2.33;;;14.60;98.00;;;;;;5014794;28;20458;-62
2022/09/16 07:08:24;;;;;;;3.50;2.27;;;14.60;98.00;;;;;;5014751;28;20528;-63
2022/09/16 07:10:58;;;;;;;1.90;1.80;;;14.60;98.00;;;;;;5014829;28;20490;-62
2022/09/16 07:13:26;;;;;;;2.07;1.80;;;14.60;98.00;;;;;;5015022;28;20544;-62
2022/09/16 07:15:53;;;;;;;4.07;2.00;;;14.70;98.00;;;;;;5015017;28;20457;-63
2022/09/16 07:18:22;;;;;;;2.67;2.00;;;14.60;98.00;;;;;;4997417;28;20473;-62
2022/09/16 07:20:49;;;;;;;2.53;1.80;;;14.70;98.00;;;;;;4997247;28;20957;-63
2022/09/16 07:23:16;;;;;;;2.17;1.77;;;14.60;98.00;;;;;;5014782;28;20456;-63
2022/09/16 07:25:43;;;;;;;4.37;1.60;;;14.60;98.00;;;;;;5014526;28;20469;-62
2022/09/16 07:28:13;;;;;;;5.40;2.60;;;14.80;98.00;;;;;;5014442;28;20841;-62
2022/09/16 07:30:41;;;;;;;2.90;2.10;;;14.80;98.00;;;;;;5014177;28;20465;-62
2022/09/16 07:33:09;;;;;;;2.07;1.40;;;14.80;98.00;;;;;;5014530;28;20731;-63
2022/09/16 07:35:38;;;;;;;1.50;1.40;;;14.80;98.00;;;;;;4993804;28;20516;-63
2022/09/16 07:38:05;;;;;;;1.73;1.57;;;14.80;98.00;;;;;;5012144;28;20461;-63
2022/09/16 07:40:33;;;;;;;3.20;1.57;;;14.80;98.00;;;;;;5012047;28;20473;-65
2022/09/16 07:43:00;;;;;;;1.80;1.60;;;14.70;98.00;;;;;;4992944;28;20490;-63
2022/09/16 07:45:28;;;;;;;2.43;1.90;;;14.70;98.00;;;;;;4996822;28;20472;-63
2022/09/16 07:48:04;;;;;;;1.83;1.67;;;14.70;98.00;;;;;;5006329;28;20497;-63
2022/09/16 07:50:31;;;;;;;1.90;1.80;;;14.70;98.00;;;;;;4999843;28;20462;-66
2022/09/16 07:52:58;;;;;;;8.50;1.40;;;14.60;98.00;;;;;;4985326;28;20818;-67
2022/09/16 07:55:26;;;;;;;2.70;2.07;;;14.50;98.00;;;;;;4978137;28;20495;-63
2022/09/16 07:58:01;;;;;;;2.13;1.40;;;14.40;98.00;;;;;;4997565;28;20457;-64
2022/09/16 08:00:28;;;;;;;2.07;1.80;;;14.30;98.00;;;;;;4979847;28;20457;-65
2022/09/16 08:02:59;;;;;;;3.40;2.27;;;14.30;98.00;;;;;;4997198;28;20456;-63
2022/09/16 08:05:26;;;;;;;1.57;1.50;;;14.30;98.00;;;;;;5001116;28;20471;-66
2022/09/16 08:07:53;;;;;;;3.20;1.80;;;14.20;98.00;;;;;;5001247;28;20500;-65
2022/09/16 08:10:20;;;;;;;2.27;1.97;;;14.10;98.00;;;;;;4994769;28;20456;-66
2022/09/16 08:12:48;;;;;;;2.70;1.50;;;14.10;98.00;;;;;;4997744;28;20459;-65
2022/09/16 08:15:15;;;;;;;1.60;1.50;;;14.20;98.00;;;;;;5003839;28;20493;-65
2022/09/16 08:17:42;;;;;;;1.90;1.67;;;14.20;98.00;;;;;;4992655;28;20473;-66
2022/09/16 08:20:11;;;;;;;2.10;1.83;;;14.40;98.00;;;;;;5006839;28;20510;-65
2022/09/16 08:22:39;;;;;;;2.20;1.70;;;14.50;98.00;;;;;;4995209;28;20458;-65
2022/09/16 08:25:06;;;;;;;1.87;1.50;;;14.70;98.00;;;;;;5007328;28;20466;-66
2022/09/16 08:27:35;;;;;;;2.07;1.60;;;14.80;98.00;;;;;;5010183;28;20491;-64
2022/09/16 08:30:02;;;;;;;1.80;1.50;;;14.90;98.00;;;;;;5005130;28;20473;-64
2022/09/16 08:32:29;;;;;;;1.70;1.70;;;15.00;98.00;;;;;;4989950;28;20473;-64
2022/09/16 08:34:57;;;;;;;2.00;1.33;;;15.10;98.00;;;;;;5003218;28;20455;-65
2022/09/16 08:37:25;;;;;;;1.90;1.60;;;15.10;98.00;;;;;;4998715;28;20459;-64
2022/09/16 08:39:52;;;;;;;10.23;1.80;;;15.20;98.00;;;;;;5012972;28;20477;-64
2022/09/16 08:42:30;;;;;;;2.57;1.97;;;15.30;98.00;;;;;;5013275;28;20972;-65
2022/09/16 08:45:08;;;;;;;2.10;1.63;;;15.30;98.00;;;;;;4999361;28;20466;-66
2022/09/16 08:47:47;;;;;;;2.60;1.70;;;15.20;98.00;;;;;;4990941;28;20476;-67
2022/09/16 08:50:23;;;;;;;2.57;1.73;;;15.10;98.00;;;;;;4990759;28;20549;-65
2022/09/16 08:52:54;;;;;;;2.00;1.60;;;15.10;98.00;;;;;;4982715;28;20471;-65
2022/09/16 08:55:30;;;;;;;1.60;1.53;;;15.20;98.00;;;;;;4991550;28;20458;-65
2022/09/16 08:58:01;;;;;;;2.03;1.63;;;15.40;98.00;;;;;;4991193;28;21048;-65
2022/09/16 09:00:28;;;;;;;2.97;1.60;;;15.40;98.00;;;;;;4991171;28;20466;-65
2022/09/16 09:02:58;;;;;;;1.73;1.60;;;15.40;98.00;;;;;;4990638;28;20467;-64
2022/09/16 09:05:34;;;;;;;2.20;1.60;;;15.40;98.00;;;;;;4991166;28;20473;-64
2022/09/16 09:08:32;;;;;;;1.83;1.63;;;15.40;98.00;;;;;;4982059;28;20507;-60
2022/09/16 09:11:07;;;;;;;1.90;1.60;;;15.60;98.00;;;;;;4990148;28;20530;-59
2022/09/16 09:13:48;;;;;;;1.87;1.60;;;15.80;98.00;;;;;;5348801;22;20502;-58
2022/09/16 09:16:25;;;;;;;3.63;1.80;;;15.80;98.00;;;;;;5024481;28;20953;-59
2022/09/16 09:19:02;;;;;;;2.13;1.80;;;15.60;98.00;;;;;;5019355;28;20460;-58
2022/09/16 09:21:36;;;;;;;2.00;1.60;;;15.40;98.00;;;;;;5018985;28;20816;-59
2022/09/16 09:24:28;;;;;;;3.73;2.40;;;15.30;98.00;;;;;;5014437;28;20459;-59
2022/09/16 09:27:03;;;;;;;2.00;1.60;;;15.40;98.00;;;;;;5008936;28;20464;-59
2022/09/16 09:29:55;;;;;;;2.70;1.60;;;15.50;98.00;;;;;;5017063;28;20504;-59
2022/09/16 09:32:35;;;;;;;1.63;1.60;;;15.50;98.00;;;;;;5012470;28;20458;-59
2022/09/16 09:35:21;;;;;;;1.93;1.83;;;15.70;98.00;;;;;;5024874;28;20518;-58
2022/09/16 09:38:04;;;;;;;2.70;1.73;;;15.70;98.00;;;;;;5022000;28;20466;-59
2022/09/16 09:40:40;;;;;;;1.80;1.60;;;15.70;98.00;;;;;;5016881;28;20462;-60
2022/09/16 09:43:14;;;;;;;5.60;2.13;;;15.70;98.00;;;;;;5020745;28;20466;-58
2022/09/16 09:45:47;;;;;;;2.77;2.00;;;15.60;98.00;;;;;;5024113;28;20539;-58
2022/09/16 09:48:21;;;;;;;2.47;1.70;;;15.60;98.00;;;;;;5022089;28;20490;-58
2022/09/16 09:50:49;;;;;;;2.10;1.80;;;15.80;98.00;;;;;;5017226;28;20466;-59
2022/09/16 09:53:22;;;;;;;2.30;1.60;;;15.90;98.00;;;;;;5021260;28;20454;-59
2022/09/16 09:55:59;;;;;;;2.07;1.50;;;15.90;98.00;;;;;;5015211;28;20557;-59
2022/09/16 09:58:33;;;;;;;2.70;1.60;;;16.00;98.00;;;;;;5021846;28;20454;-59
2022/09/16 10:01:00;;;;;;;2.97;2.03;;;16.00;98.00;;;;;;4999512;28;20512;-60
2022/09/16 10:03:30;;;;;;;1.80;1.67;;;16.10;98.00;;;;;;5002150;28;20469;-60
2022/09/16 10:05:57;;;;;;;1.70;1.60;;;16.20;98.00;;;;;;5017055;28;20510;-59
2022/09/16 10:08:29;;;;;;;3.03;1.70;;;16.20;98.00;;;;;;5003106;28;20490;-58
2022/09/16 10:10:59;;;;;;;2.07;1.83;;;16.30;98.00;;;;;;5017853;28;20827;-60
2022/09/16 10:13:29;;;;;;;3.00;2.00;;;16.40;98.00;;;;;;5017900;28;20495;-59
2022/09/16 10:16:09;;;;;;;2.97;2.00;;;16.30;98.00;;;;;;5029892;28;20493;-61
2022/09/16 10:18:37;;;;;;;2.40;1.90;;;16.40;98.00;;;;;;5031413;28;21003;-59
2022/09/16 10:21:07;;;;;;;2.13;1.70;;;16.40;98.00;;;;;;5014690;28;20507;-59
2022/09/16 10:23:35;;;;;;;1.93;1.67;;;16.30;98.00;;;;;;5031829;28;20514;-60
2022/09/16 10:26:18;;;;;;;2.47;1.83;;;16.10;98.00;;;;;;5031345;28;20485;-60
2022/09/16 10:28:55;;;;;;;1.80;1.70;;;15.80;98.00;;;;;;5031392;28;20862;-60
2022/09/16 10:31:23;;;;;;;2.70;2.00;;;15.80;98.00;;;;;;5031170;28;20468;-59
2022/09/16 10:33:51;;;;;;;3.60;1.90;;;15.80;98.00;;;;;;5013664;28;20453;-59
2022/09/16 10:36:21;;;;;;;2.37;1.70;;;15.70;98.00;;;;;;5013820;28;20458;-60
2022/09/16 10:38:53;;;;;;;2.97;2.00;;;15.70;98.00;;;;;;5031013;28;20510;-59
2022/09/16 10:41:26;;;;;;;2.33;2.13;;;15.70;98.00;;;;;;5031214;28;20834;-59
2022/09/16 10:44:00;;;;;;;2.57;2.20;;;15.70;98.00;;;;;;5031199;28;20471;-61
2022/09/16 10:46:28;;;;;;;2.93;1.80;;;15.70;98.00;;;;;;5031251;28;21025;-59
2022/09/16 10:49:00;;;;;;;1.90;1.63;;;15.80;98.00;;;;;;5031599;28;20538;-61
2022/09/16 10:51:28;;;;;;;3.20;2.23;;;16.00;98.00;;;;;;5031702;28;20473;-59
2022/09/16 10:53:57;;;;;;;2.67;1.97;;;16.10;98.00;;;;;;5031830;28;20457;-59
2022/09/16 10:56:31;;;;;;;2.10;1.90;;;16.00;98.00;;;;;;5031676;28;20465;-59
2022/09/16 10:59:03;;;;;;;5.03;2.33;;;16.00;98.00;;;;;;5031535;28;20459;-59
2022/09/16 11:01:42;;;;;;;4.23;2.73;;;15.90;98.00;;;;;;5031767;28;20548;-60
2022/09/16 11:04:44;;;;;;;2.40;1.80;;;15.90;98.00;;;;;;5031617;28;20499;-60
2022/09/16 11:07:23;;;;;;;2.30;1.70;;;16.00;98.00;;;;;;5031815;28;20462;-59
2022/09/16 11:09:59;;;;;;;2.37;1.73;;;16.00;98.00;;;;;;5031418;28;20597;-60
2022/09/16 11:13:02;;;;;;;2.37;1.80;;;15.90;98.00;;;;;;5031687;28;20814;-60
2022/09/16 11:15:40;;;;;;;2.43;1.53;;;15.70;98.00;;;;;;5031440;28;20469;-60
2022/09/16 11:18:24;;;;;;;2.87;2.13;;;15.80;98.00;;;;;;5223916;22;20831;-59
2022/09/16 11:21:20;;;;;;;2.07;1.63;;;15.60;98.00;;;;;;5010076;28;20953;-59
2022/09/16 11:24:10;;;;;;;2.80;1.67;;;15.60;98.00;;;;;;5010918;28;20467;-59
2022/09/16 11:26:48;;;;;;;2.43;2.00;;;15.60;98.00;;;;;;5010971;28;20466;-59
2022/09/16 11:29:29;;;;;;;2.97;1.97;;;15.60;98.00;;;;;;5010752;28;20513;-60
2022/09/16 11:32:04;;;;;;;3.13;2.00;;;15.80;98.00;;;;;;5011315;28;20807;-59
2022/09/16 11:34:48;;;;;;;2.80;1.90;;;15.80;98.00;;;;;;5011187;28;20458;-61
2022/09/16 11:37:23;;;;;;;3.07;1.90;;;16.20;98.00;;;;;;5013415;28;20482;-62
2022/09/16 11:40:04;;;;;;;1.93;1.73;;;16.60;98.00;;;;;;5014433;28;20451;-60
2022/09/16 11:42:35;;;;;;;2.50;1.93;;;17.00;98.00;;;;;;5014561;28;20894;-60
2022/09/16 11:45:18;;;;;;;3.73;2.37;;;17.10;98.00;;;;;;5014683;28;20520;-59
2022/09/16 11:48:07;;;;;;;4.03;2.33;;;17.00;98.00;;;;;;5014339;28;20459;-59
2022/09/16 11:50:45;;;;;;;2.23;2.10;;;16.90;98.00;;;;;;5014084;28;20470;-59
2022/09/16 11:53:44;;;;;;;3.10;2.20;;;16.60;98.00;;;;;;5014041;28;20459;-59
2022/09/16 11:56:15;;;;;;;2.93;2.07;;;16.20;98.00;;;;;;5005004;28;20467;-59
2022/09/16 11:58:49;;;;;;;1.80;1.70;;;16.00;98.00;;;;;;5014052;28;20895;-60
2022/09/16 12:01:26;;;;;;;2.20;2.00;;;16.00;98.00;;;;;;5014076;28;20470;-59
2022/09/16 12:03:59;;;;;;;3.73;2.20;;;15.80;98.00;;;;;;5013766;28;20966;-58
2022/09/16 12:06:34;;;;;;;2.73;2.17;;;15.70;98.00;;;;;;5013982;28;20523;-59
2022/09/16 12:09:05;;;;;;;2.17;1.60;;;15.70;98.00;;;;;;5013697;28;21040;-59
2022/09/16 12:11:36;;;;;;;1.83;1.47;;;15.60;98.00;;;;;;5013898;28;20461;-60
2022/09/16 12:14:13;;;;;;;1.97;1.73;;;15.80;98.00;;;;;;5013583;28;20467;-60
2022/09/16 12:16:53;;;;;;;2.53;1.87;;;15.90;98.00;;;;;;5013961;28;20462;-59
2022/09/16 12:19:23;;;;;;;2.27;1.80;;;16.00;98.00;;;;;;5013183;28;20470;-59
2022/09/16 12:21:57;;;;;;;2.40;1.77;;;16.30;98.00;;;;;;5013242;28;20865;-59
2022/09/16 12:24:33;;;;;;;1.63;1.50;;;16.60;98.00;;;;;;5008235;28;20470;-61
2022/09/16 12:27:06;;;;;;;4.13;1.90;;;16.70;98.00;;;;;;5013803;28;20465;-60
2022/09/16 12:29:42;;;;;;;2.23;1.80;;;17.20;98.00;;;;;;5013347;28;20490;-60
2022/09/16 12:32:14;;;;;;;2.30;1.70;;;18.20;98.00;;;;;;5012230;28;20627;-60
2022/09/16 12:34:46;;;;;;;1.80;1.70;;;18.70;98.00;;;;;;5012964;28;20460;-60
2022/09/16 12:37:32;;;;;;;3.23;2.00;;;18.60;98.00;;;;;;5013278;28;20817;-59
2022/09/16 12:40:02;;;;;;;5.47;1.60;;;18.10;98.00;;;;;;5013542;28;20554;-60
2022/09/16 12:43:08;;;;;;;2.80;1.97;;;18.30;98.00;;;;;;4996442;28;20470;-59
2022/09/16 12:46:05;;;;;;;1.97;1.80;;;18.50;98.00;;;;;;5002709;28;20451;-60
2022/09/16 12:49:03;;;;;;;2.93;1.90;;;18.50;98.00;;;;;;5012766;28;20463;-58
2022/09/16 12:51:44;;;;;;;2.83;1.83;;;18.30;98.00;;;;;;5012914;28;20471;-59
2022/09/16 12:54:42;;;;;;;2.43;1.80;;;18.10;98.00;;;;;;5012592;28;20466;-59
2022/09/16 12:57:22;;;;;;;2.50;1.73;;;17.80;98.00;;;;;;5013010;28;20460;-59
2022/09/16 13:00:05;;;;;;;1.90;1.60;;;17.80;98.00;;;;;;5013371;28;20463;-59
2022/09/16 13:02:36;;;;;;;2.60;1.67;;;17.90;98.00;;;;;;5013386;28;20526;-60
2022/09/16 13:05:16;;;;;;;1.90;1.60;;;18.10;98.00;;;;;;5013430;28;20555;-60
2022/09/16 13:07:48;;;;;;;3.67;1.80;;;18.10;98.00;;;;;;5013479;28;20482;-59
2022/09/16 13:10:20;;;;;;;7.80;1.87;;;18.00;98.00;;;;;;5013492;28;20492;-60
2022/09/16 13:12:53;;;;;;;2.30;1.70;;;17.90;98.00;;;;;;5013472;28;20447;-60
2022/09/16 13:15:27;;;;;;;1.93;1.77;;;17.70;98.00;;;;;;5013345;28;20467;-59